sensor_id;sensor_type;location;lat;lon;timestamp;temperature;humidity
12408;DHT22;6268;48.188;17.134;2022-08-19T00:02:08;29.70;60.50
12408;DHT22;6268;48.188;17.134;2022-08-19T00:04:37;29.70;60.40
12408;DHT22;6268;48.188;17.134;2022-08-19T00:07:07;29.60;60.80
12408;DHT22;6268;48.188;17.134;2022-08-19T00:09:37;29.40;61.40
12408;DHT22;6268;48.188;17.134;2022-08-19T00:12:06;29.10;61.80
12408;DHT22;6268;48.188;17.134;2022-08-19T00:14:36;29.00;62.20
12408;DHT22;6268;48.188;17.134;2022-08-19T00:17:06;28.90;62.70
12408;DHT22;6268;48.188;17.134;2022-08-19T00:19:37;28.90;63.00
12408;DHT22;6268;48.188;17.134;2022-08-19T00:22:06;28.80;63.30
12408;DHT22;6268;48.188;17.134;2022-08-19T00:24:36;28.80;63.60
12408;DHT22;6268;48.188;17.134;2022-08-19T00:27:05;28.70;63.70
12408;DHT22;6268;48.188;17.134;2022-08-19T00:29:52;28.60;63.90
12408;DHT22;6268;48.188;17.134;2022-08-19T00:32:21;28.60;64.10
12408;DHT22;6268;48.188;17.134;2022-08-19T00:34:53;28.50;64.40
12408;DHT22;6268;48.188;17.134;2022-08-19T00:37:24;28.50;64.30
12408;DHT22;6268;48.188;17.134;2022-08-19T00:39:55;28.40;64.70
12408;DHT22;6268;48.188;17.134;2022-08-19T00:42:24;28.30;65.00
12408;DHT22;6268;48.188;17.134;2022-08-19T00:44:55;27.90;65.80
12408;DHT22;6268;48.188;17.134;2022-08-19T00:47:24;27.60;66.60
12408;DHT22;6268;48.188;17.134;2022-08-19T00:49:56;27.50;67.30
12408;DHT22;6268;48.188;17.134;2022-08-19T00:52:29;27.30;68.10
12408;DHT22;6268;48.188;17.134;2022-08-19T00:55:06;27.30;69.00
12408;DHT22;6268;48.188;17.134;2022-08-19T00:57:38;27.20;69.00
12408;DHT22;6268;48.188;17.134;2022-08-19T01:00:14;27.10;70.30
12408;DHT22;6268;48.188;17.134;2022-08-19T01:02:45;27.00;71.00
12408;DHT22;6268;48.188;17.134;2022-08-19T01:05:17;27.00;71.70
12408;DHT22;6268;48.188;17.134;2022-08-19T01:07:49;26.90;72.00
12408;DHT22;6268;48.188;17.134;2022-08-19T01:10:23;26.90;72.30
12408;DHT22;6268;48.188;17.134;2022-08-19T01:13:02;26.90;72.80
12408;DHT22;6268;48.188;17.134;2022-08-19T01:15:34;26.80;72.80
12408;DHT22;6268;48.188;17.134;2022-08-19T01:18:09;26.90;72.40
12408;DHT22;6268;48.188;17.134;2022-08-19T01:20:41;26.90;72.20
12408;DHT22;6268;48.188;17.134;2022-08-19T01:23:12;26.90;72.20
12408;DHT22;6268;48.188;17.134;2022-08-19T01:25:47;26.90;71.90
12408;DHT22;6268;48.188;17.134;2022-08-19T01:28:20;26.90;72.10
12408;DHT22;6268;48.188;17.134;2022-08-19T01:31:07;26.90;71.80
12408;DHT22;6268;48.188;17.134;2022-08-19T01:33:56;26.80;71.60
12408;DHT22;6268;48.188;17.134;2022-08-19T01:36:28;26.80;71.70
12408;DHT22;6268;48.188;17.134;2022-08-19T01:39:07;26.80;71.90
12408;DHT22;6268;48.188;17.134;2022-08-19T01:41:40;26.80;72.30
12408;DHT22;6268;48.188;17.134;2022-08-19T01:44:09;26.80;72.10
12408;DHT22;6268;48.188;17.134;2022-08-19T01:46:46;26.80;72.20
12408;DHT22;6268;48.188;17.134;2022-08-19T01:49:17;26.80;72.00
12408;DHT22;6268;48.188;17.134;2022-08-19T01:51:48;26.90;71.20
12408;DHT22;6268;48.188;17.134;2022-08-19T01:54:20;26.80;71.50
12408;DHT22;6268;48.188;17.134;2022-08-19T01:56:59;26.80;71.70
12408;DHT22;6268;48.188;17.134;2022-08-19T01:59:31;26.80;71.90
12408;DHT22;6268;48.188;17.134;2022-08-19T02:02:04;26.80;71.90
12408;DHT22;6268;48.188;17.134;2022-08-19T02:04:34;26.80;71.80
12408;DHT22;6268;48.188;17.134;2022-08-19T02:07:05;26.90;71.50
12408;DHT22;6268;48.188;17.134;2022-08-19T02:09:36;26.80;72.00
12408;DHT22;6268;48.188;17.134;2022-08-19T02:12:06;26.80;72.20
12408;DHT22;6268;48.188;17.134;2022-08-19T02:14:36;26.80;71.70
12408;DHT22;6268;48.188;17.134;2022-08-19T02:17:05;26.80;71.70
12408;DHT22;6268;48.188;17.134;2022-08-19T02:19:34;26.80;71.90
12408;DHT22;6268;48.188;17.134;2022-08-19T02:22:07;26.70;72.90
12408;DHT22;6268;48.188;17.134;2022-08-19T02:24:37;26.70;72.40
12408;DHT22;6268;48.188;17.134;2022-08-19T02:27:06;26.70;72.80
12408;DHT22;6268;48.188;17.134;2022-08-19T02:29:35;26.70;72.50
12408;DHT22;6268;48.188;17.134;2022-08-19T02:32:03;26.70;72.60
12408;DHT22;6268;48.188;17.134;2022-08-19T02:34:32;26.70;72.80
12408;DHT22;6268;48.188;17.134;2022-08-19T02:37:01;26.60;72.60
12408;DHT22;6268;48.188;17.134;2022-08-19T02:39:30;26.60;73.30
12408;DHT22;6268;48.188;17.134;2022-08-19T02:41:59;26.60;73.00
12408;DHT22;6268;48.188;17.134;2022-08-19T02:44:29;26.50;73.60
12408;DHT22;6268;48.188;17.134;2022-08-19T02:46:58;26.50;73.60
12408;DHT22;6268;48.188;17.134;2022-08-19T02:49:26;26.50;74.30
12408;DHT22;6268;48.188;17.134;2022-08-19T02:52:00;26.50;74.10
12408;DHT22;6268;48.188;17.134;2022-08-19T02:54:29;26.50;74.60
12408;DHT22;6268;48.188;17.134;2022-08-19T02:56:59;26.50;73.90
12408;DHT22;6268;48.188;17.134;2022-08-19T02:59:29;26.50;74.90
12408;DHT22;6268;48.188;17.134;2022-08-19T03:01:58;26.50;74.40
12408;DHT22;6268;48.188;17.134;2022-08-19T03:04:27;26.40;74.30
12408;DHT22;6268;48.188;17.134;2022-08-19T03:06:56;26.40;74.50
12408;DHT22;6268;48.188;17.134;2022-08-19T03:09:37;26.40;75.30
12408;DHT22;6268;48.188;17.134;2022-08-19T03:12:09;26.40;74.70
12408;DHT22;6268;48.188;17.134;2022-08-19T03:14:38;26.40;74.90
12408;DHT22;6268;48.188;17.134;2022-08-19T03:17:07;26.40;74.30
12408;DHT22;6268;48.188;17.134;2022-08-19T03:19:36;26.40;75.20
12408;DHT22;6268;48.188;17.134;2022-08-19T03:22:05;26.30;75.10
12408;DHT22;6268;48.188;17.134;2022-08-19T03:24:34;26.30;75.30
12408;DHT22;6268;48.188;17.134;2022-08-19T03:27:03;26.20;76.60
12408;DHT22;6268;48.188;17.134;2022-08-19T03:29:37;26.00;77.10
12408;DHT22;6268;48.188;17.134;2022-08-19T03:32:10;25.90;77.10
12408;DHT22;6268;48.188;17.134;2022-08-19T03:34:59;25.80;77.90
12408;DHT22;6268;48.188;17.134;2022-08-19T03:37:27;25.80;79.10
12408;DHT22;6268;48.188;17.134;2022-08-19T03:39:56;25.80;79.40
12408;DHT22;6268;48.188;17.134;2022-08-19T03:42:25;25.80;80.00
12408;DHT22;6268;48.188;17.134;2022-08-19T03:45:00;25.80;80.20
12408;DHT22;6268;48.188;17.134;2022-08-19T03:47:29;25.80;80.90
12408;DHT22;6268;48.188;17.134;2022-08-19T03:49:58;25.80;80.60
12408;DHT22;6268;48.188;17.134;2022-08-19T03:52:27;25.70;81.10
12408;DHT22;6268;48.188;17.134;2022-08-19T03:54:56;25.60;81.80
12408;DHT22;6268;48.188;17.134;2022-08-19T03:57:24;25.60;82.00
12408;DHT22;6268;48.188;17.134;2022-08-19T03:59:58;25.60;83.30
12408;DHT22;6268;48.188;17.134;2022-08-19T04:02:40;25.60;83.80
12408;DHT22;6268;48.188;17.134;2022-08-19T04:05:26;25.60;83.80
12408;DHT22;6268;48.188;17.134;2022-08-19T04:07:56;25.60;84.00
12408;DHT22;6268;48.188;17.134;2022-08-19T04:10:26;25.60;84.50
12408;DHT22;6268;48.188;17.134;2022-08-19T04:12:55;25.60;84.60
12408;DHT22;6268;48.188;17.134;2022-08-19T04:15:27;25.60;84.40
12408;DHT22;6268;48.188;17.134;2022-08-19T04:18:00;25.60;85.30
12408;DHT22;6268;48.188;17.134;2022-08-19T04:20:29;25.60;85.70
12408;DHT22;6268;48.188;17.134;2022-08-19T04:22:57;25.70;86.10
12408;DHT22;6268;48.188;17.134;2022-08-19T04:25:26;25.70;85.10
12408;DHT22;6268;48.188;17.134;2022-08-19T04:27:55;25.80;84.70
12408;DHT22;6268;48.188;17.134;2022-08-19T04:30:23;25.90;83.60
12408;DHT22;6268;48.188;17.134;2022-08-19T04:32:54;25.90;84.10
12408;DHT22;6268;48.188;17.134;2022-08-19T04:35:23;26.00;83.80
12408;DHT22;6268;48.188;17.134;2022-08-19T04:37:52;26.10;83.50
12408;DHT22;6268;48.188;17.134;2022-08-19T04:40:20;26.20;83.30
12408;DHT22;6268;48.188;17.134;2022-08-19T04:43:06;26.30;83.80
12408;DHT22;6268;48.188;17.134;2022-08-19T04:45:43;26.30;82.90
12408;DHT22;6268;48.188;17.134;2022-08-19T04:48:13;26.40;82.50
12408;DHT22;6268;48.188;17.134;2022-08-19T04:50:55;26.40;82.10
12408;DHT22;6268;48.188;17.134;2022-08-19T04:53:25;26.60;82.50
12408;DHT22;6268;48.188;17.134;2022-08-19T04:56:06;26.80;82.30
12408;DHT22;6268;48.188;17.134;2022-08-19T04:58:37;27.00;81.90
12408;DHT22;6268;48.188;17.134;2022-08-19T05:01:09;27.30;81.10
12408;DHT22;6268;48.188;17.134;2022-08-19T05:03:40;27.60;80.00
12408;DHT22;6268;48.188;17.134;2022-08-19T05:06:11;27.80;78.30
12408;DHT22;6268;48.188;17.134;2022-08-19T05:08:42;28.10;77.40
12408;DHT22;6268;48.188;17.134;2022-08-19T05:11:16;28.20;76.50
12408;DHT22;6268;48.188;17.134;2022-08-19T05:13:52;28.30;76.20
12408;DHT22;6268;48.188;17.134;2022-08-19T05:16:24;28.50;75.80
12408;DHT22;6268;48.188;17.134;2022-08-19T05:18:54;28.80;74.60
12408;DHT22;6268;48.188;17.134;2022-08-19T05:21:41;28.80;74.30
12408;DHT22;6268;48.188;17.134;2022-08-19T05:24:28;28.90;74.50
12408;DHT22;6268;48.188;17.134;2022-08-19T05:26:58;29.00;73.80
12408;DHT22;6268;48.188;17.134;2022-08-19T05:29:27;29.20;73.30
12408;DHT22;6268;48.188;17.134;2022-08-19T05:32:05;29.20;72.60
12408;DHT22;6268;48.188;17.134;2022-08-19T05:34:36;29.00;73.00
12408;DHT22;6268;48.188;17.134;2022-08-19T05:37:06;29.10;73.10
12408;DHT22;6268;48.188;17.134;2022-08-19T05:39:37;29.10;73.00
12408;DHT22;6268;48.188;17.134;2022-08-19T05:42:09;29.00;73.00
12408;DHT22;6268;48.188;17.134;2022-08-19T05:44:42;29.10;73.20
12408;DHT22;6268;48.188;17.134;2022-08-19T05:47:13;29.20;73.40
12408;DHT22;6268;48.188;17.134;2022-08-19T05:49:43;29.10;72.80
12408;DHT22;6268;48.188;17.134;2022-08-19T05:52:13;29.00;73.20
12408;DHT22;6268;48.188;17.134;2022-08-19T05:54:46;29.00;73.20
12408;DHT22;6268;48.188;17.134;2022-08-19T05:57:18;29.10;72.70
12408;DHT22;6268;48.188;17.134;2022-08-19T05:59:47;29.30;73.20
12408;DHT22;6268;48.188;17.134;2022-08-19T06:02:26;29.80;71.50
12408;DHT22;6268;48.188;17.134;2022-08-19T06:04:55;30.60;69.30
12408;DHT22;6268;48.188;17.134;2022-08-19T06:07:24;31.10;67.30
12408;DHT22;6268;48.188;17.134;2022-08-19T06:09:54;31.50;65.70
12408;DHT22;6268;48.188;17.134;2022-08-19T06:12:27;31.40;65.30
12408;DHT22;6268;48.188;17.134;2022-08-19T06:14:59;31.50;65.00
12408;DHT22;6268;48.188;17.134;2022-08-19T06:17:30;31.50;64.70
12408;DHT22;6268;48.188;17.134;2022-08-19T06:20:03;31.40;64.80
12408;DHT22;6268;48.188;17.134;2022-08-19T06:22:37;31.80;63.90
12408;DHT22;6268;48.188;17.134;2022-08-19T06:25:08;32.20;62.30
12408;DHT22;6268;48.188;17.134;2022-08-19T06:27:37;32.40;61.80
12408;DHT22;6268;48.188;17.134;2022-08-19T06:30:26;32.60;61.10
12408;DHT22;6268;48.188;17.134;2022-08-19T06:32:56;32.90;60.50
12408;DHT22;6268;48.188;17.134;2022-08-19T06:35:25;32.80;60.10
12408;DHT22;6268;48.188;17.134;2022-08-19T06:37:53;32.80;60.00
12408;DHT22;6268;48.188;17.134;2022-08-19T06:40:22;32.60;60.10
12408;DHT22;6268;48.188;17.134;2022-08-19T06:42:52;32.40;60.70
12408;DHT22;6268;48.188;17.134;2022-08-19T06:45:21;32.30;61.30
12408;DHT22;6268;48.188;17.134;2022-08-19T06:48:03;32.20;61.70
12408;DHT22;6268;48.188;17.134;2022-08-19T06:50:32;32.20;61.70
12408;DHT22;6268;48.188;17.134;2022-08-19T06:53:05;32.20;61.50
12408;DHT22;6268;48.188;17.134;2022-08-19T06:55:33;32.20;61.20
12408;DHT22;6268;48.188;17.134;2022-08-19T06:58:03;32.10;61.10
12408;DHT22;6268;48.188;17.134;2022-08-19T07:00:32;31.90;62.00
12408;DHT22;6268;48.188;17.134;2022-08-19T07:03:01;31.70;63.00
12408;DHT22;6268;48.188;17.134;2022-08-19T07:05:40;31.40;65.40
12408;DHT22;6268;48.188;17.134;2022-08-19T07:08:11;31.00;66.60
12408;DHT22;6268;48.188;17.134;2022-08-19T07:10:43;30.80;68.10
12408;DHT22;6268;48.188;17.134;2022-08-19T07:13:12;30.60;69.10
12408;DHT22;6268;48.188;17.134;2022-08-19T07:15:41;30.60;69.90
12408;DHT22;6268;48.188;17.134;2022-08-19T07:18:11;30.90;69.90
12408;DHT22;6268;48.188;17.134;2022-08-19T07:20:40;31.20;70.30
12408;DHT22;6268;48.188;17.134;2022-08-19T07:23:10;31.30;69.00
12408;DHT22;6268;48.188;17.134;2022-08-19T07:25:45;31.30;68.90
12408;DHT22;6268;48.188;17.134;2022-08-19T07:28:20;31.20;69.00
12408;DHT22;6268;48.188;17.134;2022-08-19T07:30:51;31.20;68.90
12408;DHT22;6268;48.188;17.134;2022-08-19T07:33:22;31.20;69.00
12408;DHT22;6268;48.188;17.134;2022-08-19T07:35:53;31.20;69.10
12408;DHT22;6268;48.188;17.134;2022-08-19T07:38:22;31.30;68.60
12408;DHT22;6268;48.188;17.134;2022-08-19T07:40:51;31.50;68.40
12408;DHT22;6268;48.188;17.134;2022-08-19T07:43:22;31.70;68.20
12408;DHT22;6268;48.188;17.134;2022-08-19T07:46:01;32.10;67.20
12408;DHT22;6268;48.188;17.134;2022-08-19T07:48:31;32.80;65.50
12408;DHT22;6268;48.188;17.134;2022-08-19T07:51:03;33.20;63.90
12408;DHT22;6268;48.188;17.134;2022-08-19T07:53:37;33.50;62.10
12408;DHT22;6268;48.188;17.134;2022-08-19T07:56:06;33.60;61.40
12408;DHT22;6268;48.188;17.134;2022-08-19T07:58:38;33.80;61.10
12408;DHT22;6268;48.188;17.134;2022-08-19T08:01:13;34.00;60.30
12408;DHT22;6268;48.188;17.134;2022-08-19T08:03:46;34.30;59.30
12408;DHT22;6268;48.188;17.134;2022-08-19T08:06:34;34.40;58.60
12408;DHT22;6268;48.188;17.134;2022-08-19T08:09:23;34.30;59.00
12408;DHT22;6268;48.188;17.134;2022-08-19T08:11:57;34.40;59.10
12408;DHT22;6268;48.188;17.134;2022-08-19T08:14:50;34.50;59.50
12408;DHT22;6268;48.188;17.134;2022-08-19T08:17:25;34.60;58.90
12408;DHT22;6268;48.188;17.134;2022-08-19T08:20:18;34.60;57.00
12408;DHT22;6268;48.188;17.134;2022-08-19T08:22:48;34.50;56.80
12408;DHT22;6268;48.188;17.134;2022-08-19T08:25:35;34.30;57.00
12408;DHT22;6268;48.188;17.134;2022-08-19T08:28:05;34.10;57.20
12408;DHT22;6268;48.188;17.134;2022-08-19T08:30:43;33.60;57.70
12408;DHT22;6268;48.188;17.134;2022-08-19T08:33:18;33.30;58.80
12408;DHT22;6268;48.188;17.134;2022-08-19T08:36:00;33.80;58.30
12408;DHT22;6268;48.188;17.134;2022-08-19T08:38:31;34.10;57.60
12408;DHT22;6268;48.188;17.134;2022-08-19T08:41:22;34.30;57.00
12408;DHT22;6268;48.188;17.134;2022-08-19T08:43:59;34.80;56.80
12408;DHT22;6268;48.188;17.134;2022-08-19T08:46:34;35.30;55.50
12408;DHT22;6268;48.188;17.134;2022-08-19T08:49:20;35.70;54.80
12408;DHT22;6268;48.188;17.134;2022-08-19T08:52:03;36.10;54.00
12408;DHT22;6268;48.188;17.134;2022-08-19T08:54:37;36.20;53.60
12408;DHT22;6268;48.188;17.134;2022-08-19T08:57:26;36.30;53.10
12408;DHT22;6268;48.188;17.134;2022-08-19T09:00:10;36.50;52.40
12408;DHT22;6268;48.188;17.134;2022-08-19T09:02:45;36.50;51.90
12408;DHT22;6268;48.188;17.134;2022-08-19T09:05:18;36.40;52.50
12408;DHT22;6268;48.188;17.134;2022-08-19T09:08:02;36.70;52.00
12408;DHT22;6268;48.188;17.134;2022-08-19T09:10:43;36.60;51.80
12408;DHT22;6268;48.188;17.134;2022-08-19T09:13:27;36.70;51.80
12408;DHT22;6268;48.188;17.134;2022-08-19T09:16:07;36.70;51.60
12408;DHT22;6268;48.188;17.134;2022-08-19T09:18:42;36.80;51.60
12408;DHT22;6268;48.188;17.134;2022-08-19T09:21:13;37.00;50.80
12408;DHT22;6268;48.188;17.134;2022-08-19T09:23:44;37.10;50.50
12408;DHT22;6268;48.188;17.134;2022-08-19T09:26:18;37.40;50.10
12408;DHT22;6268;48.188;17.134;2022-08-19T09:28:50;37.60;49.70
12408;DHT22;6268;48.188;17.134;2022-08-19T09:31:21;37.80;49.40
12408;DHT22;6268;48.188;17.134;2022-08-19T09:33:51;37.90;49.10
12408;DHT22;6268;48.188;17.134;2022-08-19T09:36:26;38.00;48.30
12408;DHT22;6268;48.188;17.134;2022-08-19T09:39:03;38.00;48.60
12408;DHT22;6268;48.188;17.134;2022-08-19T09:41:42;37.80;48.90
12408;DHT22;6268;48.188;17.134;2022-08-19T09:44:15;37.30;49.80
12408;DHT22;6268;48.188;17.134;2022-08-19T09:46:45;37.20;49.90
12408;DHT22;6268;48.188;17.134;2022-08-19T09:49:15;37.30;49.50
12408;DHT22;6268;48.188;17.134;2022-08-19T09:51:49;37.60;49.40
12408;DHT22;6268;48.188;17.134;2022-08-19T09:54:20;38.00;48.90
12408;DHT22;6268;48.188;17.134;2022-08-19T09:56:51;38.30;48.50
12408;DHT22;6268;48.188;17.134;2022-08-19T09:59:21;38.50;48.00
12408;DHT22;6268;48.188;17.134;2022-08-19T10:01:50;38.80;47.70
12408;DHT22;6268;48.188;17.134;2022-08-19T10:04:19;39.10;47.00
12408;DHT22;6268;48.188;17.134;2022-08-19T10:06:51;39.40;46.30
12408;DHT22;6268;48.188;17.134;2022-08-19T10:09:25;39.00;47.20
12408;DHT22;6268;48.188;17.134;2022-08-19T10:12:01;38.80;47.30
12408;DHT22;6268;48.188;17.134;2022-08-19T10:14:32;38.80;47.40
12408;DHT22;6268;48.188;17.134;2022-08-19T10:17:01;38.90;47.20
12408;DHT22;6268;48.188;17.134;2022-08-19T10:19:48;39.10;47.00
12408;DHT22;6268;48.188;17.134;2022-08-19T10:22:23;39.50;46.30
12408;DHT22;6268;48.188;17.134;2022-08-19T10:24:54;39.60;46.80
12408;DHT22;6268;48.188;17.134;2022-08-19T10:27:23;39.60;45.90
12408;DHT22;6268;48.188;17.134;2022-08-19T10:29:52;39.50;45.80
12408;DHT22;6268;48.188;17.134;2022-08-19T10:32:24;39.50;45.90
12408;DHT22;6268;48.188;17.134;2022-08-19T10:35:00;39.40;46.10
12408;DHT22;6268;48.188;17.134;2022-08-19T10:37:32;39.20;46.00
12408;DHT22;6268;48.188;17.134;2022-08-19T10:40:03;39.10;46.10
12408;DHT22;6268;48.188;17.134;2022-08-19T10:42:34;38.90;46.40
12408;DHT22;6268;48.188;17.134;2022-08-19T10:45:05;38.80;46.40
12408;DHT22;6268;48.188;17.134;2022-08-19T10:47:36;38.60;46.50
12408;DHT22;6268;48.188;17.134;2022-08-19T10:50:06;38.40;46.90
12408;DHT22;6268;48.188;17.134;2022-08-19T10:52:56;38.20;46.90
12408;DHT22;6268;48.188;17.134;2022-08-19T10:55:27;38.10;47.30
12408;DHT22;6268;48.188;17.134;2022-08-19T10:58:11;37.90;47.70
12408;DHT22;6268;48.188;17.134;2022-08-19T11:00:41;37.70;47.90
12408;DHT22;6268;48.188;17.134;2022-08-19T11:03:11;37.50;48.30
12408;DHT22;6268;48.188;17.134;2022-08-19T11:05:39;37.30;48.50
12408;DHT22;6268;48.188;17.134;2022-08-19T11:08:08;37.10;48.50
12408;DHT22;6268;48.188;17.134;2022-08-19T11:10:52;36.90;49.10
12408;DHT22;6268;48.188;17.134;2022-08-19T11:13:27;36.70;49.10
12408;DHT22;6268;48.188;17.134;2022-08-19T11:15:57;36.60;48.60
12408;DHT22;6268;48.188;17.134;2022-08-19T11:18:35;36.50;48.40
12408;DHT22;6268;48.188;17.134;2022-08-19T11:21:10;36.50;49.10
12408;DHT22;6268;48.188;17.134;2022-08-19T11:23:41;36.50;48.70
12408;DHT22;6268;48.188;17.134;2022-08-19T11:26:12;36.60;48.70
12408;DHT22;6268;48.188;17.134;2022-08-19T11:28:40;36.70;48.80
12408;DHT22;6268;48.188;17.134;2022-08-19T11:31:10;36.70;48.90
12408;DHT22;6268;48.188;17.134;2022-08-19T11:33:40;36.60;49.00
12408;DHT22;6268;48.188;17.134;2022-08-19T11:36:14;36.20;49.50
12408;DHT22;6268;48.188;17.134;2022-08-19T11:38:44;35.90;50.20
12408;DHT22;6268;48.188;17.134;2022-08-19T11:41:18;35.50;50.70
12408;DHT22;6268;48.188;17.134;2022-08-19T11:43:49;35.20;51.20
12408;DHT22;6268;48.188;17.134;2022-08-19T11:46:20;35.00;51.80
12408;DHT22;6268;48.188;17.134;2022-08-19T11:48:51;35.00;51.80
12408;DHT22;6268;48.188;17.134;2022-08-19T11:51:22;35.10;51.80
12408;DHT22;6268;48.188;17.134;2022-08-19T11:53:53;35.10;51.80
12408;DHT22;6268;48.188;17.134;2022-08-19T11:56:25;35.00;51.80
12408;DHT22;6268;48.188;17.134;2022-08-19T11:58:55;34.90;51.60
12408;DHT22;6268;48.188;17.134;2022-08-19T12:01:26;34.70;51.40
12408;DHT22;6268;48.188;17.134;2022-08-19T12:03:57;34.60;51.30
12408;DHT22;6268;48.188;17.134;2022-08-19T12:06:28;34.30;51.80
12408;DHT22;6268;48.188;17.134;2022-08-19T12:09:06;34.10;51.80
12408;DHT22;6268;48.188;17.134;2022-08-19T12:11:38;33.90;52.30
12408;DHT22;6268;48.188;17.134;2022-08-19T12:14:10;33.80;52.50
12408;DHT22;6268;48.188;17.134;2022-08-19T12:16:44;33.70;52.90
12408;DHT22;6268;48.188;17.134;2022-08-19T12:19:17;33.70;53.30
12408;DHT22;6268;48.188;17.134;2022-08-19T12:21:48;33.50;53.60
12408;DHT22;6268;48.188;17.134;2022-08-19T12:24:18;33.30;54.00
12408;DHT22;6268;48.188;17.134;2022-08-19T12:26:53;33.10;54.70
12408;DHT22;6268;48.188;17.134;2022-08-19T12:29:27;32.80;55.50
12408;DHT22;6268;48.188;17.134;2022-08-19T12:31:57;32.70;55.80
12408;DHT22;6268;48.188;17.134;2022-08-19T12:34:31;32.60;56.10
12408;DHT22;6268;48.188;17.134;2022-08-19T12:37:02;32.50;57.70
12408;DHT22;6268;48.188;17.134;2022-08-19T12:39:35;32.40;58.80
12408;DHT22;6268;48.188;17.134;2022-08-19T12:42:06;32.60;58.30
12408;DHT22;6268;48.188;17.134;2022-08-19T12:44:36;33.00;58.00
12408;DHT22;6268;48.188;17.134;2022-08-19T12:47:10;33.30;57.60
12408;DHT22;6268;48.188;17.134;2022-08-19T12:49:42;33.50;57.00
12408;DHT22;6268;48.188;17.134;2022-08-19T12:52:23;33.80;56.40
12408;DHT22;6268;48.188;17.134;2022-08-19T12:54:56;34.10;55.20
12408;DHT22;6268;48.188;17.134;2022-08-19T12:57:29;34.50;55.10
12408;DHT22;6268;48.188;17.134;2022-08-19T13:00:03;34.80;54.40
12408;DHT22;6268;48.188;17.134;2022-08-19T13:02:37;35.00;53.90
12408;DHT22;6268;48.188;17.134;2022-08-19T13:05:08;35.20;53.80
12408;DHT22;6268;48.188;17.134;2022-08-19T13:07:39;35.30;53.10
12408;DHT22;6268;48.188;17.134;2022-08-19T13:10:12;35.30;52.60
12408;DHT22;6268;48.188;17.134;2022-08-19T13:12:45;35.30;52.60
12408;DHT22;6268;48.188;17.134;2022-08-19T13:15:16;35.20;52.40
12408;DHT22;6268;48.188;17.134;2022-08-19T13:17:52;34.90;52.70
12408;DHT22;6268;48.188;17.134;2022-08-19T13:20:23;34.40;53.30
12408;DHT22;6268;48.188;17.134;2022-08-19T13:22:52;33.80;54.10
12408;DHT22;6268;48.188;17.134;2022-08-19T13:25:24;33.30;55.00
12408;DHT22;6268;48.188;17.134;2022-08-19T13:27:55;33.00;55.10
12408;DHT22;6268;48.188;17.134;2022-08-19T13:30:23;32.70;55.20
12408;DHT22;6268;48.188;17.134;2022-08-19T13:33:10;32.70;56.60
12408;DHT22;6268;48.188;17.134;2022-08-19T13:35:43;32.50;57.30
12408;DHT22;6268;48.188;17.134;2022-08-19T13:38:16;32.40;55.70
12408;DHT22;6268;48.188;17.134;2022-08-19T13:40:50;32.00;55.30
12408;DHT22;6268;48.188;17.134;2022-08-19T13:43:26;31.70;57.50
12408;DHT22;6268;48.188;17.134;2022-08-19T13:45:56;31.90;58.80
12408;DHT22;6268;48.188;17.134;2022-08-19T13:48:25;32.10;55.70
12408;DHT22;6268;48.188;17.134;2022-08-19T13:50:55;32.00;53.70
12408;DHT22;6268;48.188;17.134;2022-08-19T13:53:24;31.80;54.40
12408;DHT22;6268;48.188;17.134;2022-08-19T13:55:52;31.60;55.10
12408;DHT22;6268;48.188;17.134;2022-08-19T13:58:23;31.50;55.80
12408;DHT22;6268;48.188;17.134;2022-08-19T14:00:51;31.40;56.10
12408;DHT22;6268;48.188;17.134;2022-08-19T14:03:20;31.40;56.60
12408;DHT22;6268;48.188;17.134;2022-08-19T14:05:49;31.30;57.20
12408;DHT22;6268;48.188;17.134;2022-08-19T14:08:18;31.20;57.50
12408;DHT22;6268;48.188;17.134;2022-08-19T14:10:46;31.00;58.40
12408;DHT22;6268;48.188;17.134;2022-08-19T14:13:18;30.70;60.40
12408;DHT22;6268;48.188;17.134;2022-08-19T14:15:50;30.50;62.30
12408;DHT22;6268;48.188;17.134;2022-08-19T14:18:20;30.50;64.00
12408;DHT22;6268;48.188;17.134;2022-08-19T14:20:54;30.50;65.80
12408;DHT22;6268;48.188;17.134;2022-08-19T14:23:24;30.60;67.10
12408;DHT22;6268;48.188;17.134;2022-08-19T14:25:53;30.60;68.90
12408;DHT22;6268;48.188;17.134;2022-08-19T14:28:30;30.60;69.00
12408;DHT22;6268;48.188;17.134;2022-08-19T14:31:00;30.60;69.80
12408;DHT22;6268;48.188;17.134;2022-08-19T14:33:29;30.40;71.10
12408;DHT22;6268;48.188;17.134;2022-08-19T14:35:59;30.30;74.50
12408;DHT22;6268;48.188;17.134;2022-08-19T14:38:28;30.20;78.60
12408;DHT22;6268;48.188;17.134;2022-08-19T14:41:18;30.10;78.10
12408;DHT22;6268;48.188;17.134;2022-08-19T14:43:51;29.90;79.00
12408;DHT22;6268;48.188;17.134;2022-08-19T14:46:24;29.80;81.90
12408;DHT22;6268;48.188;17.134;2022-08-19T14:48:56;29.60;84.00
12408;DHT22;6268;48.188;17.134;2022-08-19T14:51:26;29.50;86.40
12408;DHT22;6268;48.188;17.134;2022-08-19T14:53:55;29.30;91.80
12408;DHT22;6268;48.188;17.134;2022-08-19T14:56:26;29.30;91.50
12408;DHT22;6268;48.188;17.134;2022-08-19T14:58:57;29.40;91.70
12408;DHT22;6268;48.188;17.134;2022-08-19T15:01:29;29.30;91.90
12408;DHT22;6268;48.188;17.134;2022-08-19T15:03:58;29.40;92.50
12408;DHT22;6268;48.188;17.134;2022-08-19T15:06:27;29.40;92.60
12408;DHT22;6268;48.188;17.134;2022-08-19T15:08:57;29.60;92.70
12408;DHT22;6268;48.188;17.134;2022-08-19T15:11:30;29.60;93.90
12408;DHT22;6268;48.188;17.134;2022-08-19T15:14:00;29.50;95.10
12408;DHT22;6268;48.188;17.134;2022-08-19T15:16:31;29.50;94.40
12408;DHT22;6268;48.188;17.134;2022-08-19T15:19:00;29.60;94.70
12408;DHT22;6268;48.188;17.134;2022-08-19T15:21:29;29.60;96.00
12408;DHT22;6268;48.188;17.134;2022-08-19T15:23:59;29.80;98.10
12408;DHT22;6268;48.188;17.134;2022-08-19T15:26:29;30.00;98.10
12408;DHT22;6268;48.188;17.134;2022-08-19T15:29:00;30.30;99.00
12408;DHT22;6268;48.188;17.134;2022-08-19T15:31:32;30.50;98.60
12408;DHT22;6268;48.188;17.134;2022-08-19T15:34:04;30.70;98.30
12408;DHT22;6268;48.188;17.134;2022-08-19T15:36:34;30.80;97.80
12408;DHT22;6268;48.188;17.134;2022-08-19T15:39:04;31.00;97.50
12408;DHT22;6268;48.188;17.134;2022-08-19T15:41:36;31.00;97.60
12408;DHT22;6268;48.188;17.134;2022-08-19T15:44:09;31.10;97.30
12408;DHT22;6268;48.188;17.134;2022-08-19T15:46:43;31.20;96.50
12408;DHT22;6268;48.188;17.134;2022-08-19T15:49:16;31.20;94.90
12408;DHT22;6268;48.188;17.134;2022-08-19T15:51:47;31.10;93.40
12408;DHT22;6268;48.188;17.134;2022-08-19T15:54:20;30.70;94.60
12408;DHT22;6268;48.188;17.134;2022-08-19T15:56:50;30.60;95.60
12408;DHT22;6268;48.188;17.134;2022-08-19T15:59:37;30.60;92.90
12408;DHT22;6268;48.188;17.134;2022-08-19T16:02:30;30.70;93.90
12408;DHT22;6268;48.188;17.134;2022-08-19T16:05:22;30.80;92.20